OK1KPA-6 Weather Reports


Display with metric or nautical units.
time (UTC)temp
F
wind
direction
speed
MPH
gust
MPH
rain 1hr
in
rain 24hr
in
rain mn
in
humidity
%
barometer
mb
20220809225042 64 1 7.0 15.0 0.00 0.00 0.00 100
20220809224042 64 1 6.0 12.0 0.00 0.00 0.00 100
20220809223041 64 1 5.0 10.0 0.00 0.00 0.00 100
20220809222041 65 1 4.0 9.0 0.00 0.00 0.00 100
20220809221040 64 1 4.0 9.0 0.00 0.00 0.00 100
20220809220040 65 1 4.0 9.0 0.00 0.00 0.00 100
20220809215039 65 1 4.0 9.0 0.00 0.00 0.00 100
20220809214039 65 1 5.0 11.0 0.00 0.00 0.00 100
20220809213038 65 1 4.0 8.0 0.00 0.00 0.00 100
20220809212038 65 1 4.0 8.0 0.00 0.00 0.00 100
20220809211037 65 1 5.0 10.0 0.00 0.00 0.00 100
20220809210037 65 1 5.0 11.0 0.00 0.00 0.00 100
20220809205036 65 1 6.0 12.0 0.00 0.00 0.00 100
20220809204036 66 1 7.0 13.0 0.00 0.00 0.00 100
20220809203035 66 1 8.0 14.0 0.00 0.00 0.00 100
20220809202035 66 1 6.0 11.0 0.00 0.00 0.00 100
20220809201034 66 1 6.0 12.0 0.00 0.00 0.00 100
20220809200034 67 1 6.0 11.0 0.00 0.00 0.00 100
20220809195033 66 1 5.0 8.0 0.00 0.00 0.00 100
20220809194032 67 1 6.0 11.0 0.00 0.00 0.00 100
20220809193032 66 1 5.0 11.0 0.00 0.00 0.00 100
20220809192031 66 1 5.0 13.0 0.00 0.00 0.00 100
20220809191031 67 1 5.0 10.0 0.00 0.00 0.00 100
20220809190030 67 1 5.0 10.0 0.00 0.00 0.00 100
20220809185030 67 1 5.0 11.0 0.00 0.00 0.00 100
20220809184029 68 1 5.0 11.0 0.00 0.00 0.00 100
20220809183029 68 1 4.0 7.0 0.00 0.00 0.00 100
20220809182028 69 1 3.0 7.0 0.00 0.00 0.00 100
20220809181028 70 1 4.0 8.0 0.00 0.00 0.00 100
20220809180027 32 1 4.0 8.0 0.00 0.00 0.00 100
20220809175027 70 1 5.0 11.0 0.00 0.00 0.00 100
20220809174026 70 1 7.0 16.0 0.00 0.00 0.00 100
20220809173025 32 1 8.0 17.0 0.00 0.00 0.00 100
20220809172025 32 1 8.0 15.0 0.00 0.00 0.00 100
20220809171024 72 1 8.0 14.0 0.00 0.00 0.00 100
20220809170024 32 1 10.0 20.0 0.00 0.00 0.00 100
20220809165023 72 1 12.0 21.0 0.00 0.00 0.00 100
20220809164023 73 1 10.0 17.0 0.00 0.00 0.00 100
20220809163022 32 1 11.0 19.0 0.00 0.00 0.00 100
20220809162022 73 1 12.0 22.0 0.00 0.00 0.00 100
20220809161021 32 1 12.0 20.0 0.00 0.00 0.00 100
20220809160021 32 1 12.0 21.0 0.00 0.00 0.00 100
20220809155020 32 1 11.0 23.0 0.00 0.00 0.00 100
20220809154020 73 1 9.0 17.0 0.00 0.00 0.00 100
20220809153019 74 1 9.0 19.0 0.00 0.00 0.00 100
20220809152019 32 1 13.0 22.0 0.00 0.00 0.00 100
20220809151018 32 1 13.0 23.0 0.00 0.00 0.00 100
20220809150018 32 1 12.0 22.0 0.00 0.00 0.00 100
20220809145017 32 1 7.0 14.0 0.00 0.00 0.00 100
20220809144017 32 1 8.0 16.0 0.00 0.00 0.00 100
20220809143016 32 1 8.0 17.0 0.00 0.00 0.00 100
20220809142015 32 1 13.0 25.0 0.00 0.00 0.00 100
20220809141015 73 1 10.0 24.0 0.00 0.00 0.00 100
20220809140014 32 1 12.0 22.0 0.00 0.00 0.00 100
20220809135014 32 1 10.0 20.0 0.00 0.00 0.00 100
20220809134013 75 1 10.0 21.0 0.00 0.00 0.00 100
20220809133013 32 1 11.0 21.0 0.00 0.00 0.00 100
20220809132012 32 1 10.0 18.0 0.00 0.00 0.00 100
20220809131012 32 1 9.0 21.0 0.00 0.00 0.00 100
20220809130011 32 1 8.0 18.0 0.00 0.00 0.00 100
20220809125011 32 1 9.0 15.0 0.00 0.00 0.00 100
20220809124010 32 1 10.0 18.0 0.00 0.00 0.00 100
20220809123010 32 1 8.0 18.0 0.00 0.00 0.00 100
20220809122009 74 1 11.0 22.0 0.00 0.00 0.00 100
20220809121009 32 1 10.0 20.0 0.00 0.00 0.00 100
20220809120008 32 1 10.0 20.0 0.00 0.00 0.00 100
20220809115008 32 1 10.0 21.0 0.00 0.00 0.00 100
20220809114007 32 1 10.0 18.0 0.00 0.00 0.00 100
20220809113007 32 1 10.0 18.0 0.00 0.00 0.00 100
20220809112006 32 1 8.0 18.0 0.00 0.00 0.00 100
20220809111005 32 1 12.0 20.0 0.00 0.00 0.00 100
20220809110005 32 1 11.0 19.0 0.00 0.00 0.00 100
20220809105004 72 1 13.0 22.0 0.00 0.00 0.00 100
20220809104004 32 1 12.0 20.0 0.00 0.00 0.00 100
20220809103003 71 1 11.0 23.0 0.00 0.00 0.00 100
20220809102003 32 1 10.0 17.0 0.00 0.00 0.00 100
20220809101002 32 1 12.0 21.0 0.00 0.00 0.00 100
20220809100002 32 1 16.0 26.0 0.00 0.00 0.00 100
20220809095001 32 1 13.0 24.0 0.00 0.00 0.00 100
20220809094001 32 1 13.0 24.0 0.00 0.00 0.00 100
20220809093000 32 1 13.0 21.0 0.00 0.00 0.00 100
20220809092000 32 1 12.0 20.0 0.00 0.00 0.00 100
20220809090959 32 1 12.0 22.0 0.00 0.00 0.00 100
20220809085959 32 1 12.0 20.0 0.00 0.00 0.00 100
20220809084958 70 1 11.0 18.0 0.00 0.00 0.00 100
20220809083958 32 1 10.0 17.0 0.00 0.00 0.00 100
20220809082957 32 1 10.0 22.0 0.00 0.00 0.00 100
20220809081956 32 1 9.0 16.0 0.00 0.00 0.00 100
20220809080956 70 1 10.0 18.0 0.00 0.00 0.00 100
20220809075955 32 1 11.0 21.0 0.00 0.00 0.00 100
20220809074955 32 1 9.0 19.0 0.00 0.00 0.00 100
20220809073954 32 1 10.0 18.0 0.00 0.00 0.00 100
20220809072954 69 1 12.0 19.0 0.00 0.00 0.00 100
20220809071953 32 1 10.0 19.0 0.00 0.00 0.00 100
20220809070953 32 1 9.0 18.0 0.00 0.00 0.00 100
20220809065952 32 1 8.0 16.0 0.00 0.00 0.00 100
20220809064952 32 1 6.0 14.0 0.00 0.00 0.00 100
20220809063951 32 1 7.0 15.0 0.00 0.00 0.00 100
20220809062951 68 1 7.0 13.0 0.00 0.00 0.00 100
20220809061950 32 1 7.0 12.0 0.00 0.00 0.00 100
20220809060950 32 1 7.0 13.0 0.00 0.00 0.00 100
20220809055949 32 1 6.0 11.0 0.00 0.00 0.00 100
20220809054949 32 1 6.0 13.0 0.00 0.00 0.00 100
20220809053948 67 1 5.0 10.0 0.00 0.00 0.00 100
20220809052948 32 1 5.0 10.0 0.00 0.00 0.00 100
20220809051947 32 1 5.0 9.0 0.00 0.00 0.00 100
20220809050947 32 1 4.0 9.0 0.00 0.00 0.00 100
20220809045946 32 1 4.0 7.0 0.00 0.00 0.00 100
20220809044945 64 1 4.0 8.0 0.00 0.00 0.00 100
20220809043945 64 1 4.0 7.0 0.00 0.00 0.00 100
20220809042944 63 1 4.0 8.0 0.00 0.00 0.00 100
20220809041944 62 1 4.0 10.0 0.00 0.00 0.00 100
20220809040943 62 1 4.0 8.0 0.00 0.00 0.00 100
20220809035943 62 1 4.0 7.0 0.00 0.00 0.00 100
20220809034942 61 1 3.0 7.0 0.00 0.00 0.00 100
20220809033942 61 1 4.0 7.0 0.00 0.00 0.00 100
20220809032941 61 1 4.0 7.0 0.00 0.00 0.00 100
20220809031941 61 1 4.0 8.0 0.00 0.00 0.00 100
20220809030940 61 1 4.0 8.0 0.00 0.00 0.00 100
20220809025940 61 1 3.0 5.0 0.00 0.00 0.00 100
20220809024939 62 1 3.0 6.0 0.00 0.00 0.00 100
20220809023939 62 1 4.0 7.0 0.00 0.00 0.00 100
20220809022938 62 1 4.0 8.0 0.00 0.00 0.00 100
20220809021938 63 1 3.0 6.0 0.00 0.00 0.00 100
20220809020937 63 1 3.0 5.0 0.00 0.00 0.00 100
20220809015936 63 1 3.0 6.0 0.00 0.00 0.00 100
20220809014936 63 1 3.0 6.0 0.00 0.00 0.00 100
20220809013935 63 1 3.0 7.0 0.00 0.00 0.00 100
20220809012935 62 1 3.0 4.0 0.00 0.00 0.00 100
20220809011934 62 1 3.0 3.0 0.00 0.00 0.00 100
20220809010934 63 1 3.0 6.0 0.00 0.00 0.00 100
20220809005933 62 1 4.0 8.0 0.00 0.00 0.00 100
20220809004933 62 1 4.0 7.0 0.00 0.00 0.00 100
20220809003932 62 1 4.0 8.0 0.00 0.00 0.00 100
20220809002932 62 1 4.0 8.0 0.00 0.00 0.00 100
20220809001931 62 1 4.0 9.0 0.00 0.00 0.00 100
20220809000931 62 1 4.0 10.0 0.00 0.00 0.00 100
20220808235930 62 1 4.0 7.0 0.00 0.00 0.00 100
20220808234930 62 1 5.0 10.0 0.00 0.00 0.00 100
20220808233929 62 1 4.0 7.0 0.00 0.00 0.00 100
20220808232929 62 1 5.0 9.0 0.00 0.00 0.00 100
20220808231928 62 1 5.0 8.0 0.00 0.00 0.00 100
20220808230928 63 1 5.0 10.0 0.00 0.00 0.00 100
20220808225927 63 1 5.0 9.0 0.00 0.00 0.00 100